createdAt,value
2023-09-21T00:01:00.103Z,74.80
2023-09-21T00:03:29.510Z,74.80
2023-09-21T00:05:57.812Z,74.83
2023-09-21T00:08:26.317Z,74.97
2023-09-21T00:10:55.003Z,75.05
2023-09-21T00:13:27.650Z,75.11
2023-09-21T00:15:55.937Z,75.17
2023-09-21T00:18:24.082Z,75.17
2023-09-21T00:20:54.327Z,75.32
2023-09-21T00:23:23.821Z,75.37
2023-09-21T00:25:55.612Z,75.39
2023-09-21T00:28:23.500Z,75.48
2023-09-21T00:30:57.708Z,75.49
2023-09-21T00:33:26.178Z,75.47
2023-09-21T00:35:54.193Z,75.56
2023-09-21T00:38:24.918Z,75.49
2023-09-21T00:40:58.863Z,75.48
2023-09-21T00:43:27.759Z,75.42
2023-09-21T00:45:57.684Z,75.53
2023-09-21T00:48:33.901Z,75.60
2023-09-21T00:51:05.840Z,75.75
2023-09-21T00:53:34.734Z,75.71
2023-09-21T00:56:09.488Z,75.78
2023-09-21T00:58:39.956Z,75.94
2023-09-21T01:01:09.443Z,75.89
2023-09-21T01:03:38.981Z,76.00
2023-09-21T01:06:08.236Z,76.03
2023-09-21T01:08:36.281Z,76.09
2023-09-21T01:11:09.750Z,76.24
2023-09-21T01:13:38.167Z,76.23
2023-09-21T01:16:07.380Z,76.33
2023-09-21T01:18:35.426Z,76.38
2023-09-21T01:21:08.602Z,76.37
2023-09-21T01:23:40.442Z,76.28
2023-09-21T01:26:08.421Z,76.37
2023-09-21T01:28:37.592Z,76.36
2023-09-21T01:31:06.264Z,76.36
2023-09-21T01:33:34.399Z,76.43
2023-09-21T01:36:04.088Z,76.40
2023-09-21T01:38:31.831Z,76.32
2023-09-21T01:41:00.823Z,76.28
2023-09-21T01:43:28.861Z,76.32
2023-09-21T01:45:56.827Z,76.21
2023-09-21T01:48:24.788Z,76.28
2023-09-21T01:50:53.141Z,76.37
2023-09-21T01:53:23.142Z,76.33
2023-09-21T01:55:51.756Z,76.24
2023-09-21T01:58:23.892Z,76.21
2023-09-21T02:00:52.510Z,76.17
2023-09-21T02:03:25.510Z,76.19
2023-09-21T02:05:53.531Z,76.18
2023-09-21T02:08:21.428Z,76.17
2023-09-21T02:10:50.930Z,76.12
2023-09-21T02:13:19.787Z,76.12
2023-09-21T02:15:51.911Z,76.13
2023-09-21T02:18:20.029Z,76.09
2023-09-21T02:20:51.619Z,76.08
2023-09-21T02:23:21.623Z,75.89
2023-09-21T02:25:48.733Z,75.76
2023-09-21T02:28:16.438Z,75.72
2023-09-21T02:30:46.892Z,75.78
2023-09-21T02:33:16.503Z,75.58
2023-09-21T02:35:47.224Z,75.57
2023-09-21T02:38:20.614Z,75.57
2023-09-21T02:40:48.506Z,75.56
2023-09-21T02:43:17.291Z,75.57
2023-09-21T02:45:45.703Z,75.55
2023-09-21T02:48:15.186Z,75.52
2023-09-21T02:50:43.706Z,75.55
2023-09-21T02:53:12.677Z,75.66
2023-09-21T02:55:43.027Z,75.55
2023-09-21T02:58:13.258Z,75.49
2023-09-21T03:00:43.294Z,75.55
2023-09-21T03:03:13.215Z,75.61
2023-09-21T03:05:41.651Z,75.53
2023-09-21T03:08:13.515Z,75.49
2023-09-21T03:10:41.514Z,75.59
2023-09-21T03:13:16.330Z,75.48
2023-09-21T03:15:45.333Z,75.48
2023-09-21T03:18:16.329Z,75.55
2023-09-21T03:20:45.196Z,75.66
2023-09-21T03:23:14.774Z,75.68
2023-09-21T03:25:44.510Z,75.82
2023-09-21T03:28:14.091Z,75.75
2023-09-21T03:30:42.281Z,75.91
2023-09-21T03:33:11.216Z,76.04
2023-09-21T03:35:39.907Z,76.11
2023-09-21T03:38:11.344Z,76.25
2023-09-21T03:40:39.400Z,76.23
2023-09-21T03:43:10.380Z,76.33
2023-09-21T03:45:39.238Z,76.44
2023-09-21T03:48:09.300Z,76.63
2023-09-21T03:50:37.586Z,76.49
2023-09-21T03:53:06.069Z,76.64
2023-09-21T03:55:34.620Z,76.74
2023-09-21T03:58:03.952Z,76.77
2023-09-21T04:00:37.048Z,76.83
2023-09-21T04:03:08.095Z,76.74
2023-09-21T04:05:38.033Z,76.82
2023-09-21T04:08:07.215Z,76.79
2023-09-21T04:10:36.614Z,76.73
2023-09-21T04:13:05.692Z,76.77
2023-09-21T04:15:33.796Z,76.86
2023-09-21T04:18:03.073Z,76.89
2023-09-21T04:20:34.709Z,76.96
2023-09-21T04:23:02.637Z,76.86
2023-09-21T04:25:30.566Z,77.01
2023-09-21T04:27:58.518Z,77.07
2023-09-21T04:30:25.600Z,77.08
2023-09-21T04:32:55.904Z,77.10
2023-09-21T04:35:24.062Z,77.10
2023-09-21T04:37:51.888Z,77.19
2023-09-21T04:40:19.726Z,77.25
2023-09-21T04:42:49.059Z,77.12
2023-09-21T04:45:19.100Z,77.08
2023-09-21T04:47:49.523Z,77.23
2023-09-21T04:50:18.276Z,77.34
2023-09-21T04:52:48.529Z,77.34
2023-09-21T04:55:17.089Z,77.47
2023-09-21T04:57:46.082Z,77.44
2023-09-21T05:00:16.169Z,77.31
2023-09-21T05:02:45.741Z,77.32
2023-09-21T05:05:16.052Z,77.42
2023-09-21T05:07:43.995Z,77.28
2023-09-21T05:10:12.754Z,77.30
2023-09-21T05:12:40.748Z,77.42
2023-09-21T05:15:14.431Z,77.45
2023-09-21T05:17:42.378Z,77.25
2023-09-21T05:20:11.572Z,77.29
2023-09-21T05:22:40.486Z,77.28
2023-09-21T05:25:09.794Z,77.33
2023-09-21T05:27:37.992Z,77.30
2023-09-21T05:30:09.829Z,77.37
2023-09-21T05:32:38.674Z,77.42
2023-09-21T05:35:09.465Z,77.43
2023-09-21T05:37:37.908Z,77.38
2023-09-21T05:40:11.743Z,77.35
2023-09-21T05:42:39.787Z,77.24
2023-09-21T05:45:09.799Z,77.20
2023-09-21T05:47:38.039Z,77.23
2023-09-21T05:50:08.617Z,77.26
2023-09-21T05:52:37.176Z,77.26
2023-09-21T05:55:06.658Z,77.13
2023-09-21T05:57:34.740Z,77.06
2023-09-21T06:00:02.697Z,77.08
2023-09-21T06:02:30.546Z,77.10
2023-09-21T06:04:58.469Z,77.00
2023-09-21T06:07:27.547Z,76.89
2023-09-21T06:09:55.506Z,76.67
2023-09-21T06:12:26.152Z,76.77
2023-09-21T06:14:56.598Z,76.47
2023-09-21T06:17:24.944Z,76.33
2023-09-21T06:19:53.693Z,76.24
2023-09-21T06:22:21.379Z,76.24
2023-09-21T06:24:48.260Z,76.14
2023-09-21T06:27:16.181Z,76.27
2023-09-21T06:29:45.324Z,76.16
2023-09-21T06:32:13.981Z,76.02
2023-09-21T06:34:42.985Z,75.82
2023-09-21T06:37:11.395Z,75.70
2023-09-21T06:39:39.121Z,75.59
2023-09-21T06:42:06.502Z,75.40
2023-09-21T06:44:33.422Z,75.19
2023-09-21T06:47:01.443Z,75.23
2023-09-21T06:49:30.015Z,75.29
2023-09-21T06:51:59.229Z,75.18
2023-09-21T06:54:28.572Z,75.08
2023-09-21T06:57:04.079Z,74.73
2023-09-21T06:59:34.588Z,74.39
2023-09-21T07:02:05.349Z,74.18
2023-09-21T07:04:34.574Z,74.01
2023-09-21T07:07:05.589Z,73.89
2023-09-21T07:09:34.828Z,73.70
2023-09-21T07:12:03.780Z,72.72
2023-09-21T07:14:33.477Z,72.15
2023-09-21T07:17:01.209Z,71.65
2023-09-21T07:19:29.730Z,71.55
2023-09-21T07:21:57.459Z,71.27
2023-09-21T07:24:25.692Z,71.00
2023-09-21T07:26:54.320Z,71.01
2023-09-21T07:29:23.728Z,70.84
2023-09-21T07:31:52.055Z,70.39
2023-09-21T07:34:20.009Z,69.70
2023-09-21T07:36:47.785Z,68.82
2023-09-21T07:39:16.929Z,68.44
2023-09-21T07:41:46.977Z,68.41
2023-09-21T07:44:16.861Z,67.06
2023-09-21T07:46:44.955Z,66.39
2023-09-21T07:49:13.937Z,65.56
2023-09-21T07:51:41.687Z,65.11
2023-09-21T07:54:09.536Z,64.45
2023-09-21T07:56:37.691Z,64.30
2023-09-21T07:59:10.232Z,64.37
2023-09-21T08:01:38.178Z,64.20
2023-09-21T08:04:07.947Z,64.15
2023-09-21T08:06:35.751Z,63.65
2023-09-21T08:11:33.657Z,62.88
2023-09-21T08:14:03.336Z,62.22
2023-09-21T08:16:33.144Z,62.04
2023-09-21T08:19:01.875Z,61.94
2023-09-21T08:21:30.770Z,62.38
2023-09-21T08:23:58.635Z,62.14
2023-09-21T08:26:26.524Z,61.38
2023-09-21T08:28:54.386Z,60.58
2023-09-21T08:31:22.171Z,60.37
2023-09-21T08:33:50.336Z,60.10
2023-09-21T08:36:18.214Z,59.71
2023-09-21T08:38:46.296Z,59.61
2023-09-21T08:41:14.336Z,59.14
2023-09-21T08:43:43.419Z,58.67
2023-09-21T08:46:12.350Z,58.28
2023-09-21T08:48:41.726Z,57.57
2023-09-21T08:51:12.146Z,57.46
2023-09-21T08:53:42.723Z,57.83
2023-09-21T08:56:11.943Z,57.78
2023-09-21T08:58:41.940Z,57.91
2023-09-21T09:01:11.748Z,57.82
2023-09-21T09:03:40.988Z,58.22
2023-09-21T09:06:09.066Z,58.19
2023-09-21T09:08:36.855Z,57.65
2023-09-21T09:11:04.745Z,57.54
2023-09-21T09:13:33.567Z,57.52
2023-09-21T09:16:01.534Z,57.48
2023-09-21T09:18:29.534Z,57.90
2023-09-21T09:20:57.564Z,57.78
2023-09-21T09:23:25.792Z,57.99
2023-09-21T09:25:55.498Z,57.58
2023-09-21T09:28:24.389Z,57.95
2023-09-21T09:30:53.696Z,57.39
2023-09-21T09:33:26.252Z,57.03
2023-09-21T09:35:54.340Z,56.85
2023-09-21T09:38:22.673Z,56.74
2023-09-21T09:40:51.267Z,56.03
2023-09-21T09:43:21.249Z,56.20
2023-09-21T09:45:51.472Z,54.99
2023-09-21T09:48:24.088Z,54.84
2023-09-21T09:50:55.790Z,54.81
2023-09-21T09:53:26.012Z,54.68
2023-09-21T09:55:56.366Z,54.95
2023-09-21T09:58:27.448Z,55.14
2023-09-21T10:00:57.349Z,55.12
2023-09-21T10:03:26.427Z,55.03
2023-09-21T10:05:55.317Z,55.31
2023-09-21T10:08:26.193Z,55.27
2023-09-21T10:10:58.519Z,55.68
2023-09-21T10:13:27.542Z,55.59
2023-09-21T10:16:01.795Z,55.06
2023-09-21T10:18:37.220Z,54.45
2023-09-21T10:21:23.933Z,54.46
2023-09-21T10:24:07.089Z,53.60
2023-09-21T10:26:38.783Z,53.39
2023-09-21T10:29:08.128Z,53.52
2023-09-21T10:31:40.190Z,53.46
2023-09-21T10:34:17.415Z,53.00
2023-09-21T10:36:50.224Z,53.24
2023-09-21T10:39:26.211Z,52.46
2023-09-21T10:41:56.563Z,51.92
2023-09-21T10:44:56.444Z,51.97
2023-09-21T10:47:31.051Z,52.06
2023-09-21T10:50:02.959Z,50.43
2023-09-21T10:52:31.839Z,50.84
2023-09-21T10:55:00.308Z,49.77
2023-09-21T10:57:30.556Z,50.02
2023-09-21T11:00:12.264Z,49.63
2023-09-21T11:02:41.778Z,49.65
2023-09-21T11:05:11.559Z,49.42
2023-09-21T11:07:41.956Z,49.53
2023-09-21T11:10:11.732Z,49.26
2023-09-21T11:12:40.671Z,49.83
2023-09-21T11:15:13.427Z,49.67
2023-09-21T11:17:43.459Z,49.84
2023-09-21T11:20:18.305Z,50.42
2023-09-21T11:22:48.396Z,50.32
2023-09-21T11:25:20.625Z,50.53
2023-09-21T11:27:49.130Z,50.52
2023-09-21T11:30:17.003Z,50.01
2023-09-21T11:32:46.588Z,49.57
2023-09-21T11:35:16.937Z,50.09
2023-09-21T11:37:44.949Z,50.36
2023-09-21T11:40:13.520Z,50.70
2023-09-21T11:42:45.002Z,50.76
2023-09-21T11:45:17.212Z,51.04
2023-09-21T11:47:49.334Z,51.59
2023-09-21T11:50:21.588Z,51.59
2023-09-21T11:52:54.588Z,51.60
2023-09-21T11:55:24.213Z,51.77
2023-09-21T11:57:53.452Z,52.21
2023-09-21T12:00:28.214Z,52.10
2023-09-21T12:02:57.416Z,52.20
2023-09-21T12:05:26.771Z,51.55
2023-09-21T12:07:57.295Z,51.58
2023-09-21T12:10:25.892Z,51.97
2023-09-21T12:12:53.891Z,52.31
2023-09-21T12:15:21.967Z,53.03
2023-09-21T12:17:50.156Z,53.92
2023-09-21T12:20:19.013Z,54.28
2023-09-21T12:22:46.773Z,54.65
2023-09-21T12:25:15.419Z,55.42
2023-09-21T12:27:47.900Z,56.54
2023-09-21T12:30:20.743Z,57.54
2023-09-21T12:32:50.228Z,58.20
2023-09-21T12:35:20.124Z,59.80
2023-09-21T12:37:48.008Z,61.40
2023-09-21T12:40:16.334Z,62.18
2023-09-21T12:42:44.347Z,62.97
2023-09-21T12:45:15.460Z,63.65
2023-09-21T12:47:43.747Z,64.12
2023-09-21T12:50:13.004Z,64.73
2023-09-21T12:52:42.054Z,64.96
2023-09-21T12:55:11.906Z,65.22
2023-09-21T12:57:41.826Z,65.89
2023-09-21T13:00:22.156Z,66.43
2023-09-21T13:02:50.809Z,67.07
2023-09-21T13:05:18.890Z,67.77
2023-09-21T13:15:15.086Z,69.29
2023-09-21T13:18:31.723Z,69.42
2023-09-21T13:24:35.532Z,69.91
2023-09-21T13:27:11.840Z,69.75
2023-09-21T13:29:49.287Z,69.87
2023-09-21T13:32:17.321Z,70.03
2023-09-21T13:34:46.876Z,70.16
2023-09-21T13:37:14.658Z,70.09
2023-09-21T13:39:43.317Z,70.47
2023-09-21T13:42:12.097Z,70.74
2023-09-21T13:44:40.393Z,71.10
2023-09-21T13:47:08.371Z,70.81
2023-09-21T13:49:36.318Z,70.96
2023-09-21T13:52:04.731Z,71.41
2023-09-21T13:54:32.725Z,71.41
2023-09-21T13:57:01.252Z,71.73
2023-09-21T13:59:29.052Z,71.82
2023-09-21T14:01:57.007Z,72.12
2023-09-21T14:04:26.043Z,72.57
2023-09-21T14:06:54.297Z,73.01
2023-09-21T14:09:22.271Z,73.60
2023-09-21T14:11:50.291Z,74.08
2023-09-21T14:14:18.220Z,74.58
2023-09-21T14:16:46.887Z,75.12
2023-09-21T14:19:14.875Z,75.60
2023-09-21T14:21:42.788Z,76.14
2023-09-21T14:24:10.921Z,76.76
2023-09-21T14:26:38.949Z,77.11
2023-09-21T14:29:06.713Z,77.69
2023-09-21T14:31:34.764Z,78.06
2023-09-21T14:34:02.772Z,78.53
2023-09-21T14:36:30.738Z,78.94
2023-09-21T14:38:58.817Z,79.37
2023-09-21T14:41:26.859Z,79.73
2023-09-21T14:43:58.298Z,79.77
2023-09-21T14:46:26.140Z,79.95
2023-09-21T14:48:54.040Z,79.92
2023-09-21T14:51:22.212Z,80.00
2023-09-21T14:53:52.257Z,79.86
2023-09-21T14:56:20.074Z,79.75
2023-09-21T14:58:48.149Z,79.78
2023-09-21T15:01:18.081Z,79.75
2023-09-21T15:03:46.138Z,79.80
2023-09-21T15:06:14.332Z,79.81
2023-09-21T15:08:42.125Z,79.71
2023-09-21T15:11:09.818Z,79.80
2023-09-21T15:13:39.123Z,79.83
2023-09-21T15:16:08.418Z,79.81
2023-09-21T15:18:36.664Z,79.78
2023-09-21T15:21:04.709Z,79.93
2023-09-21T15:23:32.533Z,79.98
2023-09-21T15:26:09.917Z,79.95
2023-09-21T15:28:45.777Z,80.02
2023-09-21T15:31:13.813Z,79.87
2023-09-21T15:33:42.137Z,79.92
2023-09-21T15:36:10.112Z,79.94
2023-09-21T15:38:37.957Z,80.04
2023-09-21T15:41:07.230Z,80.15
2023-09-21T15:43:34.996Z,80.08
2023-09-21T15:46:03.093Z,80.10
2023-09-21T15:48:33.632Z,80.05
2023-09-21T15:51:02.387Z,80.02
2023-09-21T15:53:30.656Z,80.09
2023-09-21T15:56:00.449Z,79.85
2023-09-21T15:58:30.541Z,79.90
2023-09-21T16:00:58.475Z,79.93
2023-09-21T16:03:26.990Z,79.95
2023-09-21T16:05:54.963Z,79.85
2023-09-21T16:08:24.505Z,79.71
2023-09-21T16:10:52.496Z,79.55
2023-09-21T16:13:20.602Z,79.46
2023-09-21T16:15:48.553Z,79.39
2023-09-21T16:18:16.643Z,79.18
2023-09-21T16:20:44.905Z,78.98
2023-09-21T16:23:12.852Z,78.77
2023-09-21T16:25:40.693Z,78.79
2023-09-21T16:28:08.479Z,78.67
2023-09-21T16:30:36.327Z,78.51
2023-09-21T16:33:05.372Z,78.55
2023-09-21T16:35:36.464Z,78.68
2023-09-21T16:38:08.276Z,78.64
2023-09-21T16:40:37.141Z,78.42
2023-09-21T16:43:05.565Z,78.41
2023-09-21T16:45:35.315Z,78.40
2023-09-21T16:48:05.605Z,78.35
2023-09-21T16:50:34.886Z,78.39
2023-09-21T16:53:03.384Z,78.32
2023-09-21T16:55:31.444Z,78.22
2023-09-21T16:57:59.337Z,78.29
2023-09-21T17:00:27.399Z,78.43
2023-09-21T17:02:55.425Z,78.54
2023-09-21T17:05:23.592Z,78.57
2023-09-21T17:07:52.405Z,78.82
2023-09-21T17:10:21.500Z,78.93
2023-09-21T17:12:50.538Z,79.15
2023-09-21T17:15:18.909Z,79.28
2023-09-21T17:17:47.098Z,79.49
2023-09-21T17:20:15.632Z,79.54
2023-09-21T17:22:44.823Z,79.58
2023-09-21T17:25:13.336Z,79.58
2023-09-21T17:27:43.322Z,79.62
2023-09-21T17:30:14.364Z,79.59
2023-09-21T17:32:43.219Z,79.65
2023-09-21T17:35:11.158Z,79.54
2023-09-21T17:37:38.955Z,79.56
2023-09-21T17:40:12.338Z,79.69
2023-09-21T17:42:45.085Z,79.86
2023-09-21T17:45:13.796Z,80.12
2023-09-21T17:47:42.038Z,80.52
2023-09-21T17:50:10.940Z,80.68
2023-09-21T17:52:39.127Z,80.79
2023-09-21T17:55:08.796Z,80.96
2023-09-21T17:57:37.083Z,81.06
2023-09-21T18:00:07.829Z,81.35
2023-09-21T18:02:36.509Z,81.47
2023-09-21T18:05:05.390Z,81.73
2023-09-21T18:07:33.400Z,81.94
2023-09-21T18:10:01.250Z,82.07
2023-09-21T18:12:29.185Z,82.44
2023-09-21T18:14:57.535Z,82.52
2023-09-21T18:17:25.530Z,82.78
2023-09-21T18:19:55.135Z,82.82
2023-09-21T18:22:25.119Z,82.80
2023-09-21T18:24:52.884Z,82.87
2023-09-21T18:27:20.750Z,83.11
2023-09-21T18:29:48.919Z,82.88
2023-09-21T18:32:16.919Z,82.92
2023-09-21T18:34:45.074Z,82.91
2023-09-21T18:37:12.990Z,83.18
2023-09-21T18:39:40.935Z,83.50
2023-09-21T18:42:09.414Z,83.81
2023-09-21T18:44:39.527Z,84.01
2023-09-21T18:47:07.590Z,84.32
2023-09-21T18:49:35.388Z,84.46
2023-09-21T18:52:05.242Z,84.31
2023-09-21T18:54:33.111Z,84.46
2023-09-21T18:57:02.844Z,84.42
2023-09-21T18:59:31.151Z,84.17
2023-09-21T19:02:00.235Z,84.03
2023-09-21T19:04:28.565Z,84.05
2023-09-21T19:06:56.520Z,83.64
2023-09-21T19:09:24.504Z,83.83
2023-09-21T19:11:52.921Z,83.70
2023-09-21T19:14:20.665Z,83.73
2023-09-21T19:16:49.982Z,83.66
2023-09-21T19:19:20.082Z,83.40
2023-09-21T19:21:48.601Z,83.33
2023-09-21T19:24:16.719Z,83.15
2023-09-21T19:26:44.645Z,83.00
2023-09-21T19:29:13.286Z,82.79
2023-09-21T19:31:42.383Z,82.42
2023-09-21T19:34:10.443Z,82.34
2023-09-21T19:36:38.536Z,82.22
2023-09-21T19:39:06.572Z,82.15
2023-09-21T19:41:34.516Z,82.14
2023-09-21T19:44:02.939Z,82.06
2023-09-21T19:46:30.796Z,81.91
2023-09-21T19:48:59.642Z,82.02
2023-09-21T19:51:29.420Z,81.95
2023-09-21T19:53:58.618Z,81.86
2023-09-21T19:56:26.458Z,81.73
2023-09-21T19:58:54.572Z,81.78
2023-09-21T20:01:25.687Z,81.67
2023-09-21T20:03:53.751Z,81.99
2023-09-21T20:06:22.024Z,82.14
2023-09-21T20:08:51.345Z,81.92
2023-09-21T20:11:19.443Z,81.62
2023-09-21T20:13:47.363Z,81.33
2023-09-21T20:16:15.376Z,81.40
2023-09-21T20:18:43.297Z,81.51
2023-09-21T20:21:11.376Z,81.58
2023-09-21T20:23:39.373Z,81.25
2023-09-21T20:26:07.435Z,81.07
2023-09-21T20:28:35.265Z,80.94
2023-09-21T20:31:03.880Z,80.97
2023-09-21T20:33:31.722Z,81.06
2023-09-21T20:35:59.585Z,80.92
2023-09-21T20:38:27.458Z,80.60
2023-09-21T20:40:55.512Z,80.38
2023-09-21T20:43:23.365Z,80.07
2023-09-21T20:45:51.870Z,80.15
2023-09-21T20:48:19.740Z,80.04
2023-09-21T20:50:47.838Z,80.00
2023-09-21T20:53:15.653Z,79.99
2023-09-21T20:55:43.365Z,79.93
2023-09-21T20:58:11.469Z,79.95
2023-09-21T21:00:39.355Z,79.88
2023-09-21T21:03:07.790Z,79.84
2023-09-21T21:05:36.500Z,79.68
2023-09-21T21:08:06.158Z,79.85
2023-09-21T21:10:34.080Z,79.69
2023-09-21T21:13:02.239Z,79.42
2023-09-21T21:15:30.354Z,79.21
2023-09-21T21:17:58.322Z,79.33
2023-09-21T21:20:26.379Z,79.07
2023-09-21T21:22:54.488Z,79.25
2023-09-21T21:25:22.608Z,79.68
2023-09-21T21:27:50.489Z,79.57
2023-09-21T21:30:18.285Z,79.00
2023-09-21T21:32:46.709Z,78.92
2023-09-21T21:35:17.449Z,78.38
2023-09-21T21:37:45.682Z,80.46
2023-09-21T21:40:15.918Z,81.69
2023-09-21T21:42:44.177Z,82.47
2023-09-21T21:45:12.519Z,82.97
2023-09-21T21:47:41.397Z,83.75
2023-09-21T21:50:10.553Z,84.29
2023-09-21T21:52:39.131Z,85.40
2023-09-21T21:55:08.836Z,85.60
2023-09-21T21:57:36.748Z,86.41
2023-09-21T22:00:13.048Z,87.13
2023-09-21T22:02:40.975Z,87.45
2023-09-21T22:05:10.370Z,87.77
2023-09-21T22:07:38.243Z,88.20
2023-09-21T22:10:08.395Z,88.51
2023-09-21T22:12:36.593Z,88.67
2023-09-21T22:15:08.281Z,88.96
2023-09-21T22:17:36.430Z,88.93
2023-09-21T22:20:12.916Z,89.07
2023-09-21T22:22:41.207Z,89.38
2023-09-21T22:25:10.376Z,89.41
2023-09-21T22:27:38.252Z,89.50
2023-09-21T22:30:09.944Z,89.47
2023-09-21T22:32:38.091Z,89.66
2023-09-21T22:35:10.331Z,89.72
2023-09-21T22:37:38.209Z,89.99
2023-09-21T22:40:09.901Z,89.96
2023-09-21T22:42:49.148Z,89.96
2023-09-21T22:45:18.396Z,89.63
2023-09-21T22:47:46.474Z,89.45
2023-09-21T22:50:16.456Z,89.49
2023-09-21T22:52:47.206Z,89.31
2023-09-21T22:55:17.353Z,89.29
2023-09-21T22:57:45.976Z,89.33
2023-09-21T23:00:17.049Z,89.53
2023-09-21T23:02:45.525Z,89.66
2023-09-21T23:05:13.662Z,89.81
2023-09-21T23:07:43.358Z,89.99
2023-09-21T23:10:13.563Z,89.99
2023-09-21T23:12:42.421Z,90.19
2023-09-21T23:15:12.155Z,90.08
2023-09-21T23:17:41.480Z,90.06
2023-09-21T23:20:14.486Z,90.17
2023-09-21T23:22:43.291Z,90.12
2023-09-21T23:25:11.411Z,90.17
2023-09-21T23:27:39.918Z,89.99
2023-09-21T23:30:09.677Z,90.20
2023-09-21T23:32:37.930Z,90.24
2023-09-21T23:35:08.060Z,90.53
2023-09-21T23:37:37.875Z,90.77
2023-09-21T23:40:08.554Z,90.88
2023-09-21T23:42:37.166Z,90.74
2023-09-21T23:45:07.092Z,91.05
2023-09-21T23:47:34.987Z,91.01
2023-09-21T23:50:03.434Z,90.90
2023-09-21T23:52:32.015Z,90.91
2023-09-21T23:55:00.002Z,90.79
2023-09-21T23:57:30.917Z,90.56
2023-09-21T23:59:59.235Z,90.59
